Time;durP1;ratioP1;P1;durP2;ratioP2;P2;SDS_P1;SDS_P2;PMS_P1;PMS_P2;Temp;Humidity;BMP_temperature;BMP_pressure;BME280_temperature;BME280_humidity;BME280_pressure;Samples;Min_cycle;Max_cycle;Signal;HPM_P1;HPM_P2
2023/01/08 00:00:57;;;;;;;;;;;;;;;;;;2098767;28;20106;-50
2023/01/08 00:01:58;;;;;;;18.17;8.23;;;;;;;;;;2098138;28;20327;-46
2023/01/08 00:03:00;;;;;;;19.40;8.63;;;;;;;;;;2098238;28;20052;-45
2023/01/08 00:04:01;;;;;;;17.67;9.52;;;;;;;;;;2098213;28;20059;-45
2023/01/08 00:05:02;;;;;;;17.70;8.00;;;;;;;;;;2098232;28;20044;-45
2023/01/08 00:06:04;;;;;;;17.83;8.73;;;;;;;;;;2098256;28;20290;-47
2023/01/08 00:07:05;;;;;;;20.40;9.63;;;;;;;;;;2098275;28;20059;-47
2023/01/08 00:08:07;;;;;;;18.85;8.88;;;;;;;;;;2098148;28;20045;-47
2023/01/08 00:09:08;;;;;;;24.10;9.38;;;;;;;;;;2098158;28;20052;-46
2023/01/08 00:10:09;;;;;;;17.48;9.10;;;;;;;;;;2098092;28;20045;-48
2023/01/08 00:11:11;;;;;;;25.33;9.23;;;;;;;;;;2098168;28;20501;-46
2023/01/08 00:12:11;;;;;;;24.52;9.90;;;;;;;;;;2098055;28;20400;-47
2023/01/08 00:13:13;;;;;;;17.35;8.00;;;;;;;;;;2098247;28;20268;-47
2023/01/08 00:14:14;;;;;;;18.30;8.05;;;;;;;;;;2098110;28;20044;-45
2023/01/08 00:15:16;;;;;;;20.13;9.75;;;;;;;;;;2098131;28;20090;-42
2023/01/08 00:16:18;;;;;;;17.75;8.45;;;;;;;;;;2098104;28;20063;-42
2023/01/08 00:17:19;;;;;;;24.42;10.25;;;;;;;;;;2098044;28;20509;-42
2023/01/08 00:18:20;;;;;;;23.42;9.07;;;;;;;;;;2097927;28;20606;-42
2023/01/08 00:19:21;;;;;;;20.30;8.77;;;;;;;;;;2098105;28;20266;-42
2023/01/08 00:20:22;;;;;;;22.63;9.40;;;;;;;;;;2098160;28;20052;-42
2023/01/08 00:21:23;;;;;;;18.38;8.75;;;;;;;;;;2097913;28;20041;-42
2023/01/08 00:22:24;;;;;;;22.00;9.70;;;;;;;;;;2098111;28;20036;-42
2023/01/08 00:23:25;;;;;;;23.33;9.75;;;;;;;;;;2098026;28;20048;-42
2023/01/08 00:24:27;;;;;;;19.80;9.50;;;;;;;;;;2098006;28;20041;-42
2023/01/08 00:25:27;;;;;;;18.48;8.40;;;;;;;;;;2097995;28;20050;-42
2023/01/08 00:26:29;;;;;;;21.33;9.07;;;;;;;;;;2097996;28;20056;-42
2023/01/08 00:27:30;;;;;;;22.23;9.02;;;;;;;;;;2097944;28;20105;-42
2023/01/08 00:28:31;;;;;;;20.15;9.60;;;;;;;;;;2098121;28;20102;-46
2023/01/08 00:29:32;;;;;;;18.73;8.43;;;;;;;;;;2098073;28;20051;-45
2023/01/08 00:30:34;;;;;;;16.92;9.13;;;;;;;;;;2098043;28;20041;-45
2023/01/08 00:31:35;;;;;;;20.35;9.52;;;;;;;;;;2098151;28;20057;-45
2023/01/08 00:32:36;;;;;;;19.10;9.47;;;;;;;;;;2098144;28;20079;-45
2023/01/08 00:33:37;;;;;;;19.65;8.90;;;;;;;;;;2098208;28;20048;-45
2023/01/08 00:34:38;;;;;;;18.85;8.95;;;;;;;;;;2097625;28;20072;-45
2023/01/08 00:35:39;;;;;;;24.45;9.90;;;;;;;;;;2098090;28;20060;-45
2023/01/08 00:36:40;;;;;;;21.53;9.67;;;;;;;;;;2098077;28;20199;-45
2023/01/08 00:37:41;;;;;;;22.75;9.60;;;;;;;;;;2097913;28;20742;-45
2023/01/08 00:38:43;;;;;;;21.97;8.27;;;;;;;;;;2097918;28;20059;-48
2023/01/08 00:39:44;;;;;;;23.38;9.70;;;;;;;;;;2098117;28;20049;-46
2023/01/08 00:40:47;;;;;;;25.10;9.32;;;;;;;;;;2098086;28;20056;-46
2023/01/08 00:41:48;;;;;;;18.05;9.25;;;;;;;;;;2097995;28;20051;-46
2023/01/08 00:42:49;;;;;;;24.85;9.50;;;;;;;;;;2097886;28;20424;-45
2023/01/08 00:43:50;;;;;;;20.52;8.98;;;;;;;;;;2097852;28;20052;-45
2023/01/08 00:44:52;;;;;;;15.70;8.88;;;;;;;;;;2098066;28;20540;-46
2023/01/08 00:45:53;;;;;;;19.85;8.82;;;;;;;;;;2097793;28;20094;-45
2023/01/08 00:46:54;;;;;;;18.25;9.02;;;;;;;;;;2097839;28;20076;-45
2023/01/08 00:47:55;;;;;;;20.30;9.40;;;;;;;;;;2098035;28;20358;-42
2023/01/08 00:48:56;;;;;;;21.30;9.05;;;;;;;;;;2097820;28;20105;-42
2023/01/08 00:49:57;;;;;;;22.13;9.23;;;;;;;;;;2097797;28;20508;-42
2023/01/08 00:51:00;;;;;;;18.40;8.82;;;;;;;;;;2097853;28;20052;-42
2023/01/08 00:52:01;;;;;;;21.35;10.02;;;;;;;;;;2097880;28;20149;-42
2023/01/08 00:53:02;;;;;;;15.80;7.17;;;;;;;;;;2097970;28;20045;-43
2023/01/08 00:54:03;;;;;;;18.40;8.52;;;;;;;;;;2097902;28;20079;-42
2023/01/08 00:55:05;;;;;;;16.63;8.10;;;;;;;;;;2097954;28;20504;-42
2023/01/08 00:56:07;;;;;;;18.88;8.27;;;;;;;;;;2098107;28;20501;-42
2023/01/08 00:57:08;;;;;;;;;;;;;;;;;;2098321;28;20040;-43
2023/01/08 00:58:09;;;;;;;14.75;6.97;;;;;;;;;;2097759;28;20009;-42
2023/01/08 00:59:10;;;;;;;16.80;7.20;;;;;;;;;;2097963;28;20127;-47
2023/01/08 01:00:13;;;;;;;17.10;8.00;;;;;;;;;;2097927;28;20048;-46
2023/01/08 01:01:14;;;;;;;16.83;8.13;;;;;;;;;;2097652;28;20048;-47
2023/01/08 01:02:16;;;;;;;20.92;9.32;;;;;;;;;;2097966;28;20405;-46
2023/01/08 01:03:17;;;;;;;18.00;9.20;;;;;;;;;;2097692;28;20075;-48
2023/01/08 01:04:18;;;;;;;23.63;9.30;;;;;;;;;;2097648;28;20448;-47
2023/01/08 01:05:19;;;;;;;20.77;9.32;;;;;;;;;;2098085;28;20137;-46
2023/01/08 01:06:20;;;;;;;17.45;8.98;;;;;;;;;;2097790;28;20036;-46
2023/01/08 01:07:21;;;;;;;19.63;8.88;;;;;;;;;;2097963;28;20469;-47
2023/01/08 01:08:22;;;;;;;21.73;8.88;;;;;;;;;;2097746;28;20051;-46
2023/01/08 01:09:23;;;;;;;19.52;7.93;;;;;;;;;;2099993;28;20051;-45
2023/01/08 01:10:24;;;;;;;20.48;9.00;;;;;;;;;;2106060;28;20378;-46
2023/01/08 01:11:26;;;;;;;17.10;7.80;;;;;;;;;;2106114;28;20055;-46
2023/01/08 01:12:27;;;;;;;18.67;8.88;;;;;;;;;;2097638;28;20040;-46
2023/01/08 01:13:29;;;;;;;21.63;8.73;;;;;;;;;;2097755;28;20044;-46
2023/01/08 01:14:30;;;;;;;19.10;8.82;;;;;;;;;;2097537;28;20044;-45
2023/01/08 01:15:32;;;;;;;26.97;8.93;;;;;;;;;;2097968;28;20072;-42
2023/01/08 01:16:33;;;;;;;17.73;8.10;;;;;;;;;;2097590;28;20079;-42
2023/01/08 01:17:34;;;;;;;22.63;9.00;;;;;;;;;;2097709;28;20426;-42
2023/01/08 01:18:35;;;;;;;21.63;10.07;;;;;;;;;;2097906;28;20289;-45
2023/01/08 01:19:36;;;;;;;22.40;10.03;;;;;;;;;;2097651;28;20128;-45
2023/01/08 01:20:37;;;;;;;20.70;10.15;;;;;;;;;;2097899;28;20049;-42
2023/01/08 01:21:38;;;;;;;24.60;9.88;;;;;;;;;;2097727;28;20074;-41
2023/01/08 01:22:39;;;;;;;24.15;10.10;;;;;;;;;;2097917;28;20068;-46
2023/01/08 01:23:41;;;;;;;22.40;10.37;;;;;;;;;;2097649;28;20059;-46
2023/01/08 01:24:41;;;;;;;24.17;10.05;;;;;;;;;;2097633;28;20696;-44
2023/01/08 01:25:43;;;;;;;22.43;9.50;;;;;;;;;;2097670;28;20147;-47
2023/01/08 01:26:46;;;;;;;19.50;9.50;;;;;;;;;;2097863;28;20053;-46
2023/01/08 01:27:47;;;;;;;27.67;10.60;;;;;;;;;;2097690;28;20048;-44
2023/01/08 01:28:49;;;;;;;25.20;10.60;;;;;;;;;;2097520;28;20110;-45
2023/01/08 01:29:50;;;;;;;25.45;9.98;;;;;;;;;;2097735;28;20055;-48
2023/01/08 01:30:55;;;;;;;24.92;10.38;;;;;;;;;;2097719;28;20120;-49
2023/01/08 01:31:56;;;;;;;27.02;10.15;;;;;;;;;;2097639;28;20052;-41
2023/01/08 01:32:57;;;;;;;26.80;11.27;;;;;;;;;;2097295;28;20501;-41
2023/01/08 01:33:58;;;;;;;23.37;9.90;;;;;;;;;;2097466;28;20144;-41
2023/01/08 01:34:59;;;;;;;23.15;9.63;;;;;;;;;;2105982;28;20050;-41
2023/01/08 01:36:01;;;;;;;24.67;9.30;;;;;;;;;;2106081;28;20552;-41
2023/01/08 01:37:03;;;;;;;23.48;10.15;;;;;;;;;;2106099;28;20054;-41
2023/01/08 01:38:04;;;;;;;25.98;9.75;;;;;;;;;;2106031;28;20052;-41
2023/01/08 01:39:05;;;;;;;24.83;10.48;;;;;;;;;;2106053;28;20052;-41
2023/01/08 01:40:07;;;;;;;20.13;9.10;;;;;;;;;;2105757;28;20044;-41
2023/01/08 01:41:08;;;;;;;27.17;9.80;;;;;;;;;;2106051;28;20048;-42
2023/01/08 01:42:38;;;;;;;21.88;9.77;;;;;;;;;;2105942;28;20040;-41
2023/01/08 01:43:37;;;;;;;23.23;9.73;;;;;;;;;;2105701;28;20505;-41
2023/01/08 01:44:40;;;;;;;25.40;9.90;;;;;;;;;;2106166;28;20048;-44
2023/01/08 01:45:41;;;;;;;22.73;9.52;;;;;;;;;;2105877;28;20060;-45
2023/01/08 01:46:43;;;;;;;26.08;10.43;;;;;;;;;;2105843;28;20500;-45
2023/01/08 01:47:44;;;;;;;;;;;;;;;;;;2106609;28;20048;-42
2023/01/08 01:48:47;;;;;;;19.77;9.45;;;;;;;;;;2105792;28;19976;-42
2023/01/08 01:49:51;;;;;;;20.70;9.68;;;;;;;;;;2105806;28;20369;-42
2023/01/08 01:50:53;;;;;;;25.10;10.50;;;;;;;;;;2105979;28;20064;-42
2023/01/08 01:51:56;;;;;;;30.13;11.00;;;;;;;;;;2105859;28;20051;-42
2023/01/08 01:52:59;;;;;;;21.35;9.70;;;;;;;;;;2105796;28;20048;-42
2023/01/08 01:54:02;;;;;;;24.33;10.13;;;;;;;;;;2105750;28;20425;-42
2023/01/08 01:55:04;;;;;;;24.85;9.85;;;;;;;;;;2105701;28;20052;-42
2023/01/08 01:56:06;;;;;;;26.65;9.73;;;;;;;;;;2105782;28;20048;-42
2023/01/08 01:57:09;;;;;;;22.42;10.23;;;;;;;;;;2105839;28;20554;-41
2023/01/08 01:58:12;;;;;;;24.65;9.38;;;;;;;;;;2105969;28;20028;-42
2023/01/08 01:59:13;;;;;;;23.40;9.20;;;;;;;;;;2105762;28;20101;-42
2023/01/08 02:00:14;;;;;;;24.38;9.57;;;;;;;;;;2105805;28;20142;-42
2023/01/08 02:01:16;;;;;;;23.63;9.88;;;;;;;;;;2105955;28;20046;-41
2023/01/08 02:02:17;;;;;;;25.95;10.93;;;;;;;;;;2105786;28;20055;-42
2023/01/08 02:03:23;;;;;;;23.55;9.65;;;;;;;;;;2105828;28;20518;-42
2023/01/08 02:04:24;;;;;;;27.15;11.15;;;;;;;;;;2105569;28;20546;-42
2023/01/08 02:05:29;;;;;;;27.52;11.13;;;;;;;;;;2105833;28;20105;-42
2023/01/08 02:06:34;;;;;;;20.58;9.05;;;;;;;;;;2105737;28;20048;-42
2023/01/08 02:07:38;;;;;;;25.35;10.43;;;;;;;;;;2105877;28;20059;-42
2023/01/08 02:08:42;;;;;;;21.65;8.95;;;;;;;;;;2097674;28;20052;-42
2023/01/08 02:09:47;;;;;;;24.75;10.73;;;;;;;;;;2097336;28;20393;-42
2023/01/08 02:10:51;;;;;;;22.95;10.23;;;;;;;;;;2097568;28;20060;-42
2023/01/08 02:13:12;;;;;;;26.13;9.20;;;;;;;;;;2096375;28;20048;-42
2023/01/08 02:14:20;;;;;;;28.35;10.02;;;;;;;;;;2097389;28;20047;-42
2023/01/08 02:15:24;;;;;;;18.73;7.93;;;;;;;;;;2097573;28;20052;-42
2023/01/08 02:16:26;;;;;;;23.55;9.30;;;;;;;;;;2097468;28;20058;-42
2023/01/08 02:17:32;;;;;;;24.67;10.00;;;;;;;;;;2097401;28;20048;-42
2023/01/08 02:18:37;;;;;;;26.30;10.10;;;;;;;;;;2097261;28;20090;-42
2023/01/08 02:19:41;;;;;;;23.70;11.27;;;;;;;;;;2097414;28;20044;-42
2023/01/08 02:20:43;;;;;;;23.77;9.05;;;;;;;;;;2097205;28;20044;-42
2023/01/08 02:21:51;;;;;;;28.38;10.20;;;;;;;;;;2097283;28;20060;-42
2023/01/08 02:23:04;;;;;;;22.38;9.55;;;;;;;;;;2097272;28;20044;-42
2023/01/08 02:24:11;;;;;;;23.95;9.38;;;;;;;;;;2097261;28;20055;-42
2023/01/08 02:25:16;;;;;;;28.65;10.10;;;;;;;;;;2097472;28;20622;-42
2023/01/08 02:26:21;;;;;;;26.23;10.63;;;;;;;;;;2097407;28;20052;-42
2023/01/08 02:27:23;;;;;;;25.15;10.07;;;;;;;;;;2097411;28;20041;-42
2023/01/08 02:28:25;;;;;;;25.63;10.05;;;;;;;;;;2097372;28;20056;-42
2023/01/08 02:29:27;;;;;;;24.55;9.20;;;;;;;;;;2097101;28;20048;-42
2023/01/08 02:30:29;;;;;;;22.90;10.25;;;;;;;;;;2097423;28;20102;-42
2023/01/08 02:31:31;;;;;;;23.85;9.73;;;;;;;;;;2097338;28;20051;-42
2023/01/08 02:32:32;;;;;;;31.88;10.80;;;;;;;;;;2097264;28;20101;-42
2023/01/08 02:33:34;;;;;;;22.63;9.80;;;;;;;;;;2097122;28;20083;-42
2023/01/08 02:34:35;;;;;;;22.23;9.90;;;;;;;;;;2097143;28;20433;-45
2023/01/08 02:35:39;;;;;;;27.88;10.45;;;;;;;;;;2097285;28;20048;-44
2023/01/08 02:36:42;;;;;;;25.05;9.25;;;;;;;;;;2097445;28;20049;-41
2023/01/08 02:37:43;;;;;;;25.80;10.02;;;;;;;;;;2097323;28;20056;-41
2023/01/08 02:38:49;;;;;;;22.42;9.55;;;;;;;;;;2097127;28;20045;-41
2023/01/08 02:39:59;;;;;;;28.08;9.95;;;;;;;;;;2097298;28;20481;-41
2023/01/08 02:41:03;;;;;;;21.70;9.45;;;;;;;;;;2097164;28;20055;-41
2023/01/08 02:42:09;;;;;;;23.20;8.63;;;;;;;;;;2097344;28;20464;-46
2023/01/08 02:43:11;;;;;;;24.25;10.05;;;;;;;;;;2097197;28;20428;-44
2023/01/08 02:44:16;;;;;;;26.73;10.80;;;;;;;;;;2097060;28;20401;-45
2023/01/08 02:45:34;;;;;;;25.17;9.32;;;;;;;;;;2097266;28;20404;-47
2023/01/08 02:46:36;;;;;;;31.70;11.35;;;;;;;;;;2098841;28;20424;-41
2023/01/08 02:47:40;;;;;;;29.15;10.27;;;;;;;;;;2098580;28;20086;-41
2023/01/08 02:48:44;;;;;;;29.88;10.70;;;;;;;;;;2098670;28;20135;-41
2023/01/08 02:49:46;;;;;;;29.25;10.88;;;;;;;;;;2098628;28;20049;-41
2023/01/08 02:50:49;;;;;;;30.45;11.25;;;;;;;;;;2098621;28;20489;-41
2023/01/08 02:51:52;;;;;;;25.40;10.55;;;;;;;;;;2098636;28;20062;-41
2023/01/08 02:52:55;;;;;;;22.63;10.32;;;;;;;;;;2098610;28;20045;-41
2023/01/08 02:53:58;;;;;;;26.92;9.52;;;;;;;;;;2098513;28;20121;-42
2023/01/08 02:55:01;;;;;;;26.92;10.90;;;;;;;;;;2098951;28;20045;-42
2023/01/08 02:56:03;;;;;;;26.73;10.38;;;;;;;;;;2098489;28;20504;-42
2023/01/08 02:57:06;;;;;;;28.77;11.50;;;;;;;;;;2098738;28;20063;-42
2023/01/08 02:58:08;;;;;;;23.42;10.77;;;;;;;;;;2098720;28;20294;-42
2023/01/08 02:59:10;;;;;;;24.42;9.95;;;;;;;;;;2098575;28;20489;-42
2023/01/08 03:00:12;;;;;;;24.77;10.02;;;;;;;;;;2098481;28;20062;-42
2023/01/08 03:01:15;;;;;;;26.70;10.30;;;;;;;;;;2098593;28;20102;-42
2023/01/08 03:02:16;;;;;;;25.73;9.45;;;;;;;;;;2098644;28;20051;-43
2023/01/08 03:03:19;;;;;;;24.50;10.30;;;;;;;;;;2098558;28;20070;-42
2023/01/08 03:04:21;;;;;;;30.52;11.23;;;;;;;;;;2101446;28;20048;-42
2023/01/08 03:05:24;;;;;;;26.15;10.43;;;;;;;;;;2107096;28;20048;-42
2023/01/08 03:06:25;;;;;;;28.85;11.18;;;;;;;;;;2106934;28;20043;-42
2023/01/08 03:07:26;;;;;;;29.15;10.65;;;;;;;;;;2107032;28;20051;-42
2023/01/08 03:08:27;;;;;;;27.98;10.23;;;;;;;;;;2107207;28;20056;-43
2023/01/08 03:09:28;;;;;;;27.05;10.43;;;;;;;;;;2106871;28;20050;-46
2023/01/08 03:10:30;;;;;;;24.55;10.27;;;;;;;;;;2107252;28;20036;-42
2023/01/08 03:11:34;;;;;;;26.35;10.35;;;;;;;;;;2107012;28;20052;-42
2023/01/08 03:12:43;;;;;;;26.42;10.70;;;;;;;;;;2106963;28;20055;-42
2023/01/08 03:13:45;;;;;;;32.97;11.70;;;;;;;;;;2106925;28;20055;-42
2023/01/08 03:14:49;;;;;;;23.67;10.15;;;;;;;;;;2106741;28;20044;-42
2023/01/08 03:15:54;;;;;;;27.02;10.18;;;;;;;;;;2106946;28;20104;-42
2023/01/08 03:16:57;;;;;;;29.05;10.75;;;;;;;;;;2107016;28;20497;-42
2023/01/08 03:18:00;;;;;;;28.90;9.85;;;;;;;;;;2106915;28;20063;-42
2023/01/08 03:19:04;;;;;;;28.27;11.45;;;;;;;;;;2106753;28;20048;-42
2023/01/08 03:20:06;;;;;;;25.38;11.38;;;;;;;;;;2106944;28;20056;-42
2023/01/08 03:21:08;;;;;;;29.08;11.02;;;;;;;;;;2106792;28;20044;-42
2023/01/08 03:22:09;;;;;;;;;;;;;;;;;;2107246;28;20393;-42
2023/01/08 03:23:11;;;;;;;26.40;10.05;;;;;;;;;;2106849;28;19927;-42
2023/01/08 03:24:16;;;;;;;30.77;10.45;;;;;;;;;;2106782;28;20044;-43
2023/01/08 03:25:18;;;;;;;26.02;10.73;;;;;;;;;;2106832;28;20055;-43
2023/01/08 03:26:22;;;;;;;25.67;10.95;;;;;;;;;;2106884;28;20133;-42
2023/01/08 03:27:24;;;;;;;26.70;10.00;;;;;;;;;;2106791;28;20062;-42
2023/01/08 03:28:29;;;;;;;32.40;13.20;;;;;;;;;;2107116;28;20040;-42
2023/01/08 03:29:30;;;;;;;33.90;12.45;;;;;;;;;;2106922;28;20382;-46
2023/01/08 03:30:32;;;;;;;27.40;10.80;;;;;;;;;;2106627;28;20142;-45
2023/01/08 03:31:34;;;;;;;27.70;11.20;;;;;;;;;;2106926;28;20048;-47
2023/01/08 03:32:38;;;;;;;26.55;9.95;;;;;;;;;;2106721;28;20055;-45
2023/01/08 03:33:40;;;;;;;29.02;10.82;;;;;;;;;;2106502;28;20439;-48
2023/01/08 03:34:42;;;;;;;24.95;10.98;;;;;;;;;;2100259;28;20040;-46
2023/01/08 03:35:43;;;;;;;;;;;;;;;;;;2098901;28;20071;-46
2023/01/08 03:36:45;;;;;;;26.25;9.82;;;;;;;;;;2098312;28;19920;-45
2023/01/08 03:37:51;;;;;;;24.10;9.38;;;;;;;;;;2098452;28;20041;-45
2023/01/08 03:38:55;;;;;;;28.52;10.82;;;;;;;;;;2098263;28;20064;-46
2023/01/08 03:39:59;;;;;;;29.77;10.38;;;;;;;;;;2098248;28;20512;-47
2023/01/08 03:41:03;;;;;;;25.10;9.80;;;;;;;;;;2098395;28;20153;-47
2023/01/08 03:42:06;;;;;;;27.98;10.32;;;;;;;;;;2098413;28;20045;-45
2023/01/08 03:43:08;;;;;;;29.02;11.15;;;;;;;;;;2098588;28;20075;-42
2023/01/08 03:44:09;;;;;;;25.75;10.77;;;;;;;;;;2098337;28;20201;-42
2023/01/08 03:45:10;;;;;;;28.05;10.88;;;;;;;;;;2098340;28;20378;-42
2023/01/08 03:46:14;;;;;;;28.95;10.82;;;;;;;;;;2098232;28;20056;-42
2023/01/08 03:47:15;;;;;;;28.38;10.63;;;;;;;;;;2098302;28;20402;-42
2023/01/08 03:48:17;;;;;;;33.30;11.73;;;;;;;;;;2098279;28;20037;-42
2023/01/08 03:49:18;;;;;;;;;;;;;;;;;;2098816;28;20106;-42
2023/01/08 03:50:21;;;;;;;24.45;9.32;;;;;;;;;;2098486;28;20327;-47
2023/01/08 03:51:23;;;;;;;25.33;10.27;;;;;;;;;;2098232;28;20044;-46
2023/01/08 03:52:24;;;;;;;30.00;11.35;;;;;;;;;;2098216;28;20090;-47
2023/01/08 03:53:26;;;;;;;26.73;11.07;;;;;;;;;;2098404;28;20052;-45
2023/01/08 03:54:29;;;;;;;27.30;10.75;;;;;;;;;;2098019;28;20045;-46
2023/01/08 03:55:30;;;;;;;24.60;10.30;;;;;;;;;;2098169;28;20056;-45
2023/01/08 03:56:31;;;;;;;31.23;11.60;;;;;;;;;;2098124;28;20048;-46
2023/01/08 03:57:32;;;;;;;27.40;11.33;;;;;;;;;;2098152;28;20405;-47
2023/01/08 03:58:33;;;;;;;33.13;12.27;;;;;;;;;;2098137;28;20489;-46
2023/01/08 03:59:35;;;;;;;25.38;11.18;;;;;;;;;;2098227;28;20055;-46
2023/01/08 04:00:36;;;;;;;36.50;12.70;;;;;;;;;;2101307;28;20409;-46
2023/01/08 04:01:37;;;;;;;29.35;11.73;;;;;;;;;;2106586;28;20429;-45
2023/01/08 04:02:40;;;;;;;31.35;12.77;;;;;;;;;;2106774;28;20084;-46
2023/01/08 04:03:42;;;;;;;32.88;11.50;;;;;;;;;;2106370;28;20048;-46
2023/01/08 04:04:43;;;;;;;33.22;10.88;;;;;;;;;;2106523;28;20059;-49
2023/01/08 04:05:44;;;;;;;23.20;10.00;;;;;;;;;;2106490;28;20135;-46
2023/01/08 04:06:45;;;;;;;28.17;11.07;;;;;;;;;;2106464;28;20062;-46
2023/01/08 04:07:46;;;;;;;31.90;12.07;;;;;;;;;;2106662;28;20126;-47
2023/01/08 04:08:47;;;;;;;26.02;11.77;;;;;;;;;;2106451;28;20055;-45
2023/01/08 04:09:48;;;;;;;26.75;12.00;;;;;;;;;;2106531;28;20055;-46
2023/01/08 04:10:49;;;;;;;27.92;12.27;;;;;;;;;;2106463;28;20476;-46
2023/01/08 04:11:50;;;;;;;40.35;10.82;;;;;;;;;;2106594;28;20048;-46
2023/01/08 04:12:52;;;;;;;27.75;11.60;;;;;;;;;;2106703;28;20087;-42
2023/01/08 04:13:52;;;;;;;33.78;11.15;;;;;;;;;;2106515;28;20105;-42
2023/01/08 04:14:54;;;;;;;28.83;11.83;;;;;;;;;;2106494;28;20040;-42
2023/01/08 04:15:56;;;;;;;23.30;10.07;;;;;;;;;;2106550;28;20044;-42
2023/01/08 04:16:58;;;;;;;30.67;11.50;;;;;;;;;;2106345;28;20455;-42
2023/01/08 04:17:59;;;;;;;31.13;12.18;;;;;;;;;;2106785;28;20059;-42
2023/01/08 04:19:00;;;;;;;32.92;12.35;;;;;;;;;;2106532;28;20098;-43
2023/01/08 04:20:01;;;;;;;31.65;11.48;;;;;;;;;;2106387;28;20113;-43
2023/01/08 04:21:02;;;;;;;29.48;10.43;;;;;;;;;;2106795;28;20052;-46
2023/01/08 04:22:03;;;;;;;25.80;11.15;;;;;;;;;;2106424;28;20137;-46
2023/01/08 04:23:04;;;;;;;29.10;11.23;;;;;;;;;;2106409;28;20044;-46
2023/01/08 04:24:05;;;;;;;27.92;11.30;;;;;;;;;;2106315;28;20496;-46
2023/01/08 04:25:07;;;;;;;27.35;11.55;;;;;;;;;;2106703;28;20040;-46
2023/01/08 04:26:08;;;;;;;28.25;11.18;;;;;;;;;;2106383;28;20052;-46
2023/01/08 04:27:09;;;;;;;26.92;9.95;;;;;;;;;;2106449;28;20101;-46
2023/01/08 04:28:10;;;;;;;33.70;11.55;;;;;;;;;;2106347;28;20048;-48
2023/01/08 04:29:11;;;;;;;29.00;11.73;;;;;;;;;;2106456;28;20471;-46
2023/01/08 04:30:13;;;;;;;31.90;13.18;;;;;;;;;;2106482;28;20055;-47
2023/01/08 04:31:14;;;;;;;31.33;13.02;;;;;;;;;;2106234;28;20040;-47
2023/01/08 04:32:15;;;;;;;29.40;11.35;;;;;;;;;;2106433;28;20044;-47
2023/01/08 04:33:16;;;;;;;30.38;10.90;;;;;;;;;;2106424;28;20373;-47
2023/01/08 04:34:17;;;;;;;27.27;10.90;;;;;;;;;;2102987;28;20044;-48
2023/01/08 04:35:18;;;;;;;34.33;12.67;;;;;;;;;;2098297;28;20036;-43
2023/01/08 04:36:19;;;;;;;31.17;11.02;;;;;;;;;;2098092;28;20041;-41
2023/01/08 04:37:20;;;;;;;29.77;12.35;;;;;;;;;;2097977;28;20048;-43
2023/01/08 04:38:21;;;;;;;28.70;10.60;;;;;;;;;;2098011;28;20080;-43
2023/01/08 04:39:22;;;;;;;32.30;12.73;;;;;;;;;;2097985;28;20054;-43
2023/01/08 04:40:24;;;;;;;24.87;10.53;;;;;;;;;;2097878;28;20420;-43
2023/01/08 04:41:24;;;;;;;27.23;11.48;;;;;;;;;;2098060;28;20067;-40
2023/01/08 04:42:26;;;;;;;28.48;11.02;;;;;;;;;;2097880;28;20508;-43
2023/01/08 04:43:27;;;;;;;26.20;11.57;;;;;;;;;;2098044;28;20059;-43
2023/01/08 04:44:28;;;;;;;28.95;11.57;;;;;;;;;;2097813;28;20093;-43
2023/01/08 04:45:30;;;;;;;33.20;11.30;;;;;;;;;;2098072;28;20051;-43
2023/01/08 04:46:31;;;;;;;29.58;11.70;;;;;;;;;;2097889;28;20071;-42
2023/01/08 04:47:32;;;;;;;29.40;11.30;;;;;;;;;;2098149;28;20454;-45
2023/01/08 04:48:34;;;;;;;26.08;11.20;;;;;;;;;;2097813;28;20053;-45
2023/01/08 04:49:35;;;;;;;29.38;11.35;;;;;;;;;;2097998;28;20053;-44
2023/01/08 04:50:36;;;;;;;33.30;12.60;;;;;;;;;;2098024;28;20048;-46
2023/01/08 04:51:37;;;;;;;31.27;11.18;;;;;;;;;;2098005;28;20052;-50
2023/01/08 04:52:38;;;;;;;31.45;12.68;;;;;;;;;;2097932;28;20607;-45
2023/01/08 04:53:40;;;;;;;28.58;11.15;;;;;;;;;;2097712;28;20074;-45
2023/01/08 04:54:41;;;;;;;33.17;12.38;;;;;;;;;;2097896;28;20048;-46
2023/01/08 04:55:42;;;;;;;27.90;11.15;;;;;;;;;;2097705;28;20045;-45
2023/01/08 04:56:43;;;;;;;30.33;11.37;;;;;;;;;;2099865;28;20052;-45
2023/01/08 04:57:44;;;;;;;33.55;12.13;;;;;;;;;;2106127;28;20412;-44
2023/01/08 04:58:45;;;;;;;28.53;10.67;;;;;;;;;;2106168;28;20051;-45
2023/01/08 04:59:46;;;;;;;34.17;11.27;;;;;;;;;;2106173;28;20052;-45
2023/01/08 05:00:48;;;;;;;31.85;11.30;;;;;;;;;;2106349;28;20044;-47
2023/01/08 05:01:49;;;;;;;29.20;12.02;;;;;;;;;;2106129;28;20048;-46
2023/01/08 05:02:50;;;;;;;27.23;11.13;;;;;;;;;;2106158;28;20047;-45
2023/01/08 05:03:52;;;;;;;30.17;12.05;;;;;;;;;;2106579;28;20063;-41
2023/01/08 05:04:53;;;;;;;37.38;13.95;;;;;;;;;;2105882;28;20040;-42
2023/01/08 05:05:54;;;;;;;30.13;12.50;;;;;;;;;;2106252;28;20044;-42
2023/01/08 05:06:55;;;;;;;30.50;13.00;;;;;;;;;;2106321;28;20087;-43
2023/01/08 05:07:56;;;;;;;33.53;12.13;;;;;;;;;;2105555;28;20072;-42
2023/01/08 05:08:57;;;;;;;28.10;12.23;;;;;;;;;;2105787;28;20192;-43
2023/01/08 05:09:58;;;;;;;31.70;11.73;;;;;;;;;;2106294;28;20048;-43
2023/01/08 05:10:59;;;;;;;28.10;11.43;;;;;;;;;;2106205;28;20044;-42
2023/01/08 05:12:00;;;;;;;32.28;12.15;;;;;;;;;;2106222;28;20044;-42
2023/01/08 05:13:01;;;;;;;28.93;11.67;;;;;;;;;;2106282;28;20055;-42
2023/01/08 05:14:03;;;;;;;22.88;10.23;;;;;;;;;;2105892;28;20055;-42
2023/01/08 05:15:04;;;;;;;32.33;10.77;;;;;;;;;;2106014;28;20052;-42
2023/01/08 05:16:06;;;;;;;25.67;10.32;;;;;;;;;;2106077;28;20044;-42
2023/01/08 05:17:07;;;;;;;;;;;;;;;;;;2106596;28;20044;-43
2023/01/08 05:18:08;;;;;;;25.05;11.00;;;;;;;;;;2106000;28;20335;-42
2023/01/08 05:19:09;;;;;;;26.50;10.13;;;;;;;;;;2106177;28;20050;-42
2023/01/08 05:20:10;;;;;;;24.77;11.25;;;;;;;;;;2106113;28;20112;-42
2023/01/08 05:21:12;;;;;;;32.35;10.82;;;;;;;;;;2106145;28;20444;-42
2023/01/08 05:22:13;;;;;;;34.83;11.77;;;;;;;;;;2106003;28;20052;-42
2023/01/08 05:23:14;;;;;;;24.97;9.73;;;;;;;;;;2106095;28;20048;-42
2023/01/08 05:24:15;;;;;;;30.50;11.32;;;;;;;;;;2106068;28;20048;-42
2023/01/08 05:25:16;;;;;;;23.42;11.25;;;;;;;;;;2106026;28;20044;-42
2023/01/08 05:26:18;;;;;;;25.73;10.55;;;;;;;;;;2106104;28;20051;-42
2023/01/08 05:27:19;;;;;;;30.10;10.13;;;;;;;;;;2106103;28;20040;-42
2023/01/08 05:28:20;;;;;;;29.30;11.10;;;;;;;;;;2106060;28;20048;-42
2023/01/08 05:29:21;;;;;;;36.85;12.02;;;;;;;;;;2105961;28;20048;-42
2023/01/08 05:30:22;;;;;;;27.85;10.82;;;;;;;;;;2106164;28;20134;-42
2023/01/08 05:31:24;;;;;;;27.88;10.73;;;;;;;;;;2106099;28;20051;-42
2023/01/08 05:32:25;;;;;;;25.08;9.75;;;;;;;;;;2105999;28;20055;-42
2023/01/08 05:33:26;;;;;;;36.67;11.70;;;;;;;;;;2106043;28;20084;-42
2023/01/08 05:34:27;;;;;;;31.75;11.85;;;;;;;;;;2105619;28;20043;-42
2023/01/08 05:35:28;;;;;;;27.08;11.18;;;;;;;;;;2105981;28;20044;-42
2023/01/08 05:36:29;;;;;;;30.25;12.90;;;;;;;;;;2105927;28;20051;-42
2023/01/08 05:37:32;;;;;;;35.85;12.15;;;;;;;;;;2106554;28;20203;-46
2023/01/08 05:38:34;;;;;;;32.45;11.77;;;;;;;;;;2105674;28;20070;-46
2023/01/08 05:39:34;;;;;;;29.25;12.35;;;;;;;;;;2106066;28;20052;-45
2023/01/08 05:40:36;;;;;;;30.77;12.07;;;;;;;;;;2106145;28;20052;-46
2023/01/08 05:41:37;;;;;;;31.98;12.75;;;;;;;;;;2106189;28;20048;-42
2023/01/08 05:42:38;;;;;;;32.42;12.35;;;;;;;;;;2106001;28;20453;-42
2023/01/08 05:43:39;;;;;;;31.30;12.82;;;;;;;;;;2105911;28;20044;-42
2023/01/08 05:44:40;;;;;;;27.77;11.75;;;;;;;;;;2105950;28;20131;-42
2023/01/08 05:45:41;;;;;;;29.88;11.68;;;;;;;;;;2106182;28;20052;-42
2023/01/08 05:46:43;;;;;;;33.07;11.53;;;;;;;;;;2105880;28;20488;-42
2023/01/08 05:47:43;;;;;;;;;;;;;;;;;;2106176;28;20119;-42
2023/01/08 05:48:45;;;;;;;30.45;10.23;;;;;;;;;;2106087;28;20118;-42
2023/01/08 05:49:45;;;;;;;33.08;10.52;;;;;;;;;;2105793;28;20390;-42
2023/01/08 05:50:48;;;;;;;32.70;12.13;;;;;;;;;;2106026;28;20051;-42
2023/01/08 05:51:49;;;;;;;27.45;12.45;;;;;;;;;;2105832;28;20052;-42
2023/01/08 05:52:50;;;;;;;29.20;10.63;;;;;;;;;;2105571;28;20048;-42
2023/01/08 05:53:51;;;;;;;32.90;12.77;;;;;;;;;;2105846;28;20051;-43
2023/01/08 05:54:52;;;;;;;35.93;11.60;;;;;;;;;;2106059;28;20492;-45
2023/01/08 05:55:57;;;;;;;29.83;12.50;;;;;;;;;;2105839;28;20131;-46
2023/01/08 05:56:58;;;;;;;28.92;11.98;;;;;;;;;;2106015;28;20040;-46
2023/01/08 05:57:59;;;;;;;32.92;12.77;;;;;;;;;;2105916;28;20044;-45
2023/01/08 05:59:01;;;;;;;35.70;12.60;;;;;;;;;;2105845;28;20051;-44
2023/01/08 06:00:03;;;;;;;35.17;13.27;;;;;;;;;;2105736;28;20048;-45
2023/01/08 06:01:04;;;;;;;;;;;;;;;;;;2106275;28;20044;-46
2023/01/08 06:02:06;;;;;;;30.83;11.88;;;;;;;;;;2105978;28;19927;-42
2023/01/08 06:03:07;;;;;;;28.85;12.13;;;;;;;;;;2106085;28;20044;-46
2023/01/08 06:04:08;;;;;;;34.78;11.98;;;;;;;;;;2105807;28;20044;-45
2023/01/08 06:05:09;;;;;;;33.27;12.07;;;;;;;;;;2106073;28;20079;-43
2023/01/08 06:06:11;;;;;;;35.63;12.73;;;;;;;;;;2105964;28;20056;-47